NKS619 KFLL-KIAH
Flight info
| Callsign | NKS619 |
|---|---|
| Flight time | N/A |
| Altitude | 36000 |
| Route | BNICE2 DOLIE Y280 LEV NNCEE2 |
| Aircraft | A321/M-SDE3FGHIRWY/LB1 |
Departure
| Time | N/A |
|---|---|
| Airport | Fort Lauderdale Hollywood International Airport (KFLL) |
Arrival
| Time | 2026-05-04 01:43 |
|---|---|
| Airport | George Bush Intercontinental Airport (KIAH) |
| Time | Latitude | Longitude | Altitude | Speed | Heading |
|---|---|---|---|---|---|
| 2026-05-04 00:57 | 29.34925 | -91.51196 | 36154 ft | 376 kts | 281° |
| 2026-05-04 00:57 | 29.35285 | -91.54250 | 36154 ft | 376 kts | 281° |
| 2026-05-04 00:58 | 29.35989 | -91.60253 | 36154 ft | 376 kts | 281° |
| 2026-05-04 00:58 | 29.36695 | -91.66298 | 36157 ft | 376 kts | 280° |
| 2026-05-04 00:59 | 29.37395 | -91.72356 | 36154 ft | 376 kts | 281° |
| 2026-05-04 00:59 | 29.38091 | -91.78384 | 36152 ft | 376 kts | 281° |
| 2026-05-04 01:00 | 29.38786 | -91.84408 | 36149 ft | 376 kts | 281° |
| 2026-05-04 01:00 | 29.39463 | -91.90311 | 36146 ft | 376 kts | 281° |
| 2026-05-04 01:01 | 29.40155 | -91.96364 | 36142 ft | 376 kts | 281° |
| 2026-05-04 01:01 | 29.40841 | -92.02383 | 36140 ft | 376 kts | 281° |
| 2026-05-04 01:02 | 29.41526 | -92.08412 | 36139 ft | 376 kts | 280° |
| 2026-05-04 01:02 | 29.42208 | -92.14456 | 36136 ft | 376 kts | 281° |
| 2026-05-04 01:03 | 29.42889 | -92.20522 | 36136 ft | 376 kts | 280° |
| 2026-05-04 01:03 | 29.43563 | -92.26553 | 36135 ft | 376 kts | 281° |
| 2026-05-04 01:04 | 29.44235 | -92.32595 | 36135 ft | 376 kts | 280° |
| 2026-05-04 01:04 | 29.44905 | -92.38655 | 36134 ft | 376 kts | 281° |
| 2026-05-04 01:05 | 29.45561 | -92.44715 | 36135 ft | 377 kts | 279° |
| 2026-05-04 01:05 | 29.45931 | -92.50790 | 36135 ft | 377 kts | 277° |
| 2026-05-04 01:06 | 29.46227 | -92.56940 | 36138 ft | 378 kts | 277° |
| 2026-05-04 01:06 | 29.46516 | -92.63071 | 36138 ft | 378 kts | 277° |
| 2026-05-04 01:07 | 29.46801 | -92.69260 | 36143 ft | 378 kts | 277° |
| 2026-05-04 01:07 | 29.47080 | -92.75410 | 36142 ft | 378 kts | 277° |
| 2026-05-04 01:08 | 29.47359 | -92.81551 | 36144 ft | 378 kts | 276° |
| 2026-05-04 01:08 | 29.47636 | -92.87740 | 36144 ft | 378 kts | 277° |
| 2026-05-04 01:09 | 29.47908 | -92.93893 | 36144 ft | 377 kts | 277° |
| 2026-05-04 01:09 | 29.48173 | -93.00036 | 36145 ft | 374 kts | 277° |
| 2026-05-04 01:10 | 29.48432 | -93.06047 | 36145 ft | 371 kts | 277° |
| 2026-05-04 01:10 | 29.48689 | -93.12119 | 35957 ft | 369 kts | 278° |
| 2026-05-04 01:10 | 29.48813 | -93.15149 | 35698 ft | 366 kts | 278° |
| 2026-05-04 01:11 | 29.48934 | -93.18119 | 35441 ft | 364 kts | 278° |
| 2026-05-04 01:11 | 29.49052 | -93.21054 | 35187 ft | 361 kts | 278° |
| 2026-05-04 01:11 | 29.49169 | -93.24002 | 34930 ft | 360 kts | 278° |
| 2026-05-04 01:11 | 29.49285 | -93.26913 | 34676 ft | 360 kts | 278° |
| 2026-05-04 01:12 | 29.49402 | -93.29858 | 34419 ft | 360 kts | 278° |
| 2026-05-04 01:12 | 29.49515 | -93.32749 | 34168 ft | 361 kts | 278° |
| 2026-05-04 01:12 | 29.49628 | -93.35653 | 33915 ft | 361 kts | 278° |
| 2026-05-04 01:12 | 29.49742 | -93.38601 | 33659 ft | 362 kts | 278° |
| 2026-05-04 01:13 | 29.49856 | -93.41551 | 33403 ft | 364 kts | 278° |
| 2026-05-04 01:13 | 29.49969 | -93.44521 | 33147 ft | 365 kts | 278° |
| 2026-05-04 01:13 | 29.50082 | -93.47508 | 32891 ft | 367 kts | 278° |
| 2026-05-04 01:13 | 29.50194 | -93.50487 | 32636 ft | 368 kts | 277° |
| 2026-05-04 01:14 | 29.50307 | -93.53500 | 32304 ft | 370 kts | 277° |
| 2026-05-04 01:14 | 29.50418 | -93.56503 | 31802 ft | 371 kts | 277° |
| 2026-05-04 01:14 | 29.50530 | -93.59566 | 31147 ft | 370 kts | 277° |
| 2026-05-04 01:14 | 29.50639 | -93.62556 | 30446 ft | 369 kts | 277° |
| 2026-05-04 01:15 | 29.50749 | -93.65577 | 29808 ft | 366 kts | 277° |
| 2026-05-04 01:15 | 29.50853 | -93.68554 | 29266 ft | 363 kts | 277° |
| 2026-05-04 01:15 | 29.50957 | -93.71507 | 28676 ft | 360 kts | 277° |
| 2026-05-04 01:15 | 29.51061 | -93.74439 | 28067 ft | 359 kts | 277° |
| 2026-05-04 01:16 | 29.51164 | -93.77380 | 27451 ft | 357 kts | 277° |
| 2026-05-04 01:16 | 29.51265 | -93.80254 | 26848 ft | 355 kts | 277° |
| 2026-05-04 01:16 | 29.51364 | -93.83115 | 26249 ft | 354 kts | 277° |
| 2026-05-04 01:16 | 29.51463 | -93.86011 | 25604 ft | 353 kts | 276° |
| 2026-05-04 01:17 | 29.51560 | -93.88838 | 25258 ft | 350 kts | 276° |
| 2026-05-04 01:17 | 29.51657 | -93.91661 | 25034 ft | 351 kts | 276° |
| 2026-05-04 01:17 | 29.51755 | -93.94514 | 24835 ft | 351 kts | 276° |
| 2026-05-04 01:17 | 29.51854 | -93.97362 | 24423 ft | 352 kts | 276° |
| 2026-05-04 01:18 | 29.51955 | -94.00210 | 23910 ft | 348 kts | 276° |
| 2026-05-04 01:18 | 29.52052 | -94.02976 | 23433 ft | 346 kts | 276° |
| 2026-05-04 01:18 | 29.52149 | -94.05780 | 22954 ft | 345 kts | 276° |
| 2026-05-04 01:18 | 29.52244 | -94.08572 | 22482 ft | 344 kts | 276° |
| 2026-05-04 01:19 | 29.52339 | -94.11371 | 22006 ft | 343 kts | 276° |
| 2026-05-04 01:19 | 29.52430 | -94.14117 | 21539 ft | 342 kts | 276° |
| 2026-05-04 01:19 | 29.52522 | -94.16906 | 21065 ft | 341 kts | 276° |
| 2026-05-04 01:19 | 29.52613 | -94.19653 | 20600 ft | 340 kts | 276° |
| 2026-05-04 01:20 | 29.52704 | -94.22451 | 20123 ft | 339 kts | 276° |
| 2026-05-04 01:20 | 29.52794 | -94.25212 | 19651 ft | 338 kts | 276° |
| 2026-05-04 01:20 | 29.52990 | -94.27922 | 19174 ft | 335 kts | 282° |
| 2026-05-04 01:20 | 29.53544 | -94.30556 | 18704 ft | 332 kts | 290° |
| 2026-05-04 01:21 | 29.54427 | -94.33038 | 18244 ft | 330 kts | 296° |
| 2026-05-04 01:21 | 29.55441 | -94.35444 | 17777 ft | 329 kts | 297° |
| 2026-05-04 01:21 | 29.56465 | -94.37825 | 17320 ft | 328 kts | 297° |
| 2026-05-04 01:21 | 29.57491 | -94.40211 | 16867 ft | 327 kts | 297° |
| 2026-05-04 01:22 | 29.58512 | -94.42590 | 16418 ft | 327 kts | 297° |
| 2026-05-04 01:22 | 29.59533 | -94.44974 | 15970 ft | 326 kts | 297° |
| 2026-05-04 01:22 | 29.60553 | -94.47356 | 15525 ft | 325 kts | 297° |
| 2026-05-04 01:22 | 29.61577 | -94.49748 | 15083 ft | 325 kts | 297° |
| 2026-05-04 01:23 | 29.62588 | -94.52104 | 14919 ft | 322 kts | 297° |
| 2026-05-04 01:23 | 29.63584 | -94.54421 | 14979 ft | 307 kts | 297° |
| 2026-05-04 01:23 | 29.64525 | -94.56616 | 14991 ft | 292 kts | 297° |
| 2026-05-04 01:23 | 29.65434 | -94.58737 | 14659 ft | 290 kts | 297° |
| 2026-05-04 01:24 | 29.66344 | -94.60864 | 14297 ft | 288 kts | 297° |
| 2026-05-04 01:24 | 29.67235 | -94.62948 | 13917 ft | 287 kts | 297° |
| 2026-05-04 01:24 | 29.68129 | -94.65041 | 13543 ft | 287 kts | 297° |
| 2026-05-04 01:24 | 29.69030 | -94.67158 | 13186 ft | 287 kts | 296° |
| 2026-05-04 01:25 | 29.69928 | -94.69273 | 12850 ft | 286 kts | 296° |
| 2026-05-04 01:25 | 29.70820 | -94.71371 | 12487 ft | 285 kts | 296° |
| 2026-05-04 01:25 | 29.71699 | -94.73434 | 12120 ft | 284 kts | 296° |
| 2026-05-04 01:25 | 29.72589 | -94.75523 | 12037 ft | 286 kts | 296° |
| 2026-05-04 01:26 | 29.73486 | -94.77631 | 11714 ft | 287 kts | 296° |
| 2026-05-04 01:26 | 29.74373 | -94.79715 | 11392 ft | 284 kts | 296° |
| 2026-05-04 01:26 | 29.75255 | -94.81787 | 11115 ft | 282 kts | 296° |
| 2026-05-04 01:26 | 29.76128 | -94.83842 | 10946 ft | 283 kts | 296° |
| 2026-05-04 01:27 | 29.77010 | -94.85919 | 10820 ft | 283 kts | 296° |
| 2026-05-04 01:27 | 29.77890 | -94.87989 | 10519 ft | 283 kts | 296° |
| 2026-05-04 01:27 | 29.78766 | -94.90049 | 10189 ft | 281 kts | 295° |
| 2026-05-04 01:27 | 29.79631 | -94.92084 | 9846 ft | 280 kts | 295° |
| 2026-05-04 01:28 | 29.80502 | -94.94141 | 9506 ft | 279 kts | 295° |
| 2026-05-04 01:28 | 29.81379 | -94.96211 | 9172 ft | 279 kts | 295° |
| 2026-05-04 01:28 | 29.82239 | -94.98244 | 8854 ft | 278 kts | 295° |
| 2026-05-04 01:28 | 29.83094 | -95.00267 | 8548 ft | 277 kts | 295° |
| 2026-05-04 01:29 | 29.83955 | -95.02306 | 8251 ft | 277 kts | 295° |
| 2026-05-04 01:29 | 29.84806 | -95.04320 | 7969 ft | 276 kts | 295° |
| 2026-05-04 01:29 | 29.85650 | -95.06317 | 7645 ft | 273 kts | 295° |
| 2026-05-04 01:29 | 29.86498 | -95.08323 | 7166 ft | 274 kts | 294° |
| 2026-05-04 01:30 | 29.87263 | -95.10342 | 6999 ft | 268 kts | 289° |
| 2026-05-04 01:30 | 29.87820 | -95.12403 | 6809 ft | 264 kts | 283° |
| 2026-05-04 01:30 | 29.88248 | -95.14471 | 6531 ft | 261 kts | 281° |
| 2026-05-04 01:30 | 29.88656 | -95.16544 | 6226 ft | 260 kts | 281° |
| 2026-05-04 01:31 | 29.89007 | -95.18610 | 6027 ft | 258 kts | 276° |
| 2026-05-04 01:31 | 29.89165 | -95.20705 | 6014 ft | 258 kts | 270° |
| 2026-05-04 01:31 | 29.89187 | -95.22796 | 6009 ft | 258 kts | 269° |
| 2026-05-04 01:31 | 29.89187 | -95.24881 | 5797 ft | 255 kts | 268° |
| 2026-05-04 01:32 | 29.89186 | -95.26956 | 5410 ft | 257 kts | 268° |
| 2026-05-04 01:32 | 29.89189 | -95.29039 | 5069 ft | 256 kts | 268° |
| 2026-05-04 01:32 | 29.89194 | -95.31125 | 4741 ft | 255 kts | 268° |
| 2026-05-04 01:32 | 29.89199 | -95.33177 | 4416 ft | 255 kts | 268° |
| 2026-05-04 01:33 | 29.89204 | -95.35265 | 4087 ft | 255 kts | 268° |
| 2026-05-04 01:33 | 29.89210 | -95.37336 | 3764 ft | 254 kts | 268° |
| 2026-05-04 01:33 | 29.89215 | -95.39382 | 3572 ft | 248 kts | 268° |
| 2026-05-04 01:33 | 29.89220 | -95.41356 | 3426 ft | 241 kts | 268° |
| 2026-05-04 01:34 | 29.89225 | -95.43308 | 3289 ft | 234 kts | 268° |
| 2026-05-04 01:34 | 29.89229 | -95.45161 | 3154 ft | 227 kts | 268° |
| 2026-05-04 01:34 | 29.89232 | -95.46986 | 3019 ft | 221 kts | 268° |
| 2026-05-04 01:34 | 29.89215 | -95.48776 | 3020 ft | 221 kts | 268° |
| 2026-05-04 01:35 | 29.89195 | -95.50567 | 3009 ft | 220 kts | 268° |
| 2026-05-04 01:35 | 29.89176 | -95.52363 | 3005 ft | 220 kts | 268° |
| 2026-05-04 01:35 | 29.89157 | -95.54153 | 3003 ft | 220 kts | 268° |
| 2026-05-04 01:35 | 29.89139 | -95.55941 | 3003 ft | 219 kts | 268° |
| 2026-05-04 01:36 | 29.89121 | -95.57697 | 3002 ft | 219 kts | 269° |
| 2026-05-04 01:36 | 29.89385 | -95.59442 | 2979 ft | 214 kts | 297° |
| 2026-05-04 01:36 | 29.90373 | -95.60609 | 3053 ft | 198 kts | 332° |
| 2026-05-04 01:36 | 29.91719 | -95.60914 | 3031 ft | 196 kts | 358° |
| 2026-05-04 01:37 | 29.93084 | -95.60877 | 3016 ft | 195 kts | 3° |
| 2026-05-04 01:37 | 29.94458 | -95.60785 | 3010 ft | 195 kts | 4° |
| 2026-05-04 01:37 | 29.95835 | -95.60686 | 3008 ft | 195 kts | 4° |
| 2026-05-04 01:37 | 29.97166 | -95.60347 | 2986 ft | 195 kts | 29° |
| 2026-05-04 01:38 | 29.98119 | -95.59225 | 3001 ft | 194 kts | 58° |
| 2026-05-04 01:38 | 29.98772 | -95.57865 | 3001 ft | 193 kts | 69° |
| 2026-05-04 01:38 | 29.99136 | -95.56356 | 3001 ft | 192 kts | 82° |
| 2026-05-04 01:38 | 29.99270 | -95.54817 | 3002 ft | 191 kts | 88° |
| 2026-05-04 01:39 | 29.99321 | -95.53269 | 2997 ft | 191 kts | 90° |
| 2026-05-04 01:39 | 29.99336 | -95.51708 | 2836 ft | 190 kts | 91° |
| 2026-05-04 01:39 | 29.99339 | -95.50222 | 2610 ft | 176 kts | 92° |
| 2026-05-04 01:39 | 29.99339 | -95.48828 | 2356 ft | 168 kts | 92° |
| 2026-05-04 01:40 | 29.99339 | -95.47510 | 2128 ft | 160 kts | 92° |
| 2026-05-04 01:40 | 29.99340 | -95.46266 | 1894 ft | 145 kts | 92° |
| 2026-05-04 01:40 | 29.99340 | -95.45094 | 1705 ft | 142 kts | 92° |
| 2026-05-04 01:40 | 29.99340 | -95.43946 | 1529 ft | 141 kts | 93° |
| 2026-05-04 01:41 | 29.99337 | -95.42809 | 1355 ft | 140 kts | 93° |
| 2026-05-04 01:41 | 29.99334 | -95.41679 | 1182 ft | 140 kts | 93° |
| 2026-05-04 01:41 | 29.99334 | -95.40540 | 999 ft | 139 kts | 92° |
| 2026-05-04 01:41 | 29.99341 | -95.39430 | 800 ft | 138 kts | 92° |
| 2026-05-04 01:42 | 29.99346 | -95.38313 | 599 ft | 137 kts | 93° |
| 2026-05-04 01:42 | 29.99347 | -95.37210 | 403 ft | 136 kts | 92° |
| 2026-05-04 01:42 | 29.99350 | -95.36111 | 236 ft | 135 kts | 93° |
| 2026-05-04 01:42 | 29.99349 | -95.35021 | 115 ft | 134 kts | 92° |
| 2026-05-04 01:43 | 29.99340 | -95.34067 | 101 ft | 91 kts | 92° |
| 2026-05-04 01:43 | 29.99342 | -95.33539 | 101 ft | 38 kts | 89° |
| 2026-05-04 01:43 | 29.99294 | -95.33254 | 100 ft | 31 kts | 116° |
| 2026-05-04 01:43 | 29.99265 | -95.33193 | 99 ft | 0 kts | 121° |
| 2026-05-04 01:44 | 29.99264 | -95.33191 | 99 ft | 1 kts | 122° |
| 2026-05-04 01:44 | 29.99262 | -95.33189 | 99 ft | 0 kts | 121° |
| 2026-05-04 01:44 | 29.99261 | -95.33186 | 99 ft | 1 kts | 121° |
| 2026-05-04 01:45 | 29.99254 | -95.33171 | 99 ft | 3 kts | 120° |
| 2026-05-04 01:45 | 29.99239 | -95.33143 | 99 ft | 5 kts | 120° |
| 2026-05-04 01:45 | 29.99191 | -95.33045 | 98 ft | 8 kts | 123° |
| 2026-05-04 01:46 | 29.99136 | -95.33027 | 97 ft | 9 kts | 184° |
| 2026-05-04 01:46 | 29.99067 | -95.33030 | 97 ft | 10 kts | 181° |
| 2026-05-04 01:46 | 29.98992 | -95.33029 | 97 ft | 11 kts | 179° |
| 2026-05-04 01:46 | 29.98912 | -95.33027 | 97 ft | 11 kts | 178° |
| 2026-05-04 01:47 | 29.98825 | -95.33025 | 97 ft | 12 kts | 179° |
| 2026-05-04 01:47 | 29.98734 | -95.33024 | 97 ft | 13 kts | 180° |
| 2026-05-04 01:47 | 29.98638 | -95.33025 | 97 ft | 13 kts | 180° |
| 2026-05-04 01:47 | 29.98541 | -95.33025 | 97 ft | 14 kts | 179° |
| 2026-05-04 01:48 | 29.98438 | -95.33025 | 97 ft | 14 kts | 181° |
| 2026-05-04 01:48 | 29.98336 | -95.33026 | 97 ft | 14 kts | 185° |
| 2026-05-04 01:48 | 29.98302 | -95.33112 | 97 ft | 12 kts | 269° |
| 2026-05-04 01:48 | 29.98300 | -95.33213 | 97 ft | 13 kts | 269° |
| 2026-05-04 01:49 | 29.98299 | -95.33322 | 97 ft | 13 kts | 270° |
| 2026-05-04 01:49 | 29.98300 | -95.33423 | 99 ft | 11 kts | 271° |
| 2026-05-04 01:49 | 29.98303 | -95.33507 | 100 ft | 9 kts | 272° |
| 2026-05-04 01:49 | 29.98306 | -95.33583 | 100 ft | 9 kts | 275° |
| 2026-05-04 01:50 | 29.98314 | -95.33673 | 101 ft | 12 kts | 277° |
| 2026-05-04 01:50 | 29.98318 | -95.33791 | 101 ft | 16 kts | 270° |
| 2026-05-04 01:50 | 29.98318 | -95.33939 | 101 ft | 19 kts | 272° |
| 2026-05-04 01:50 | 29.98371 | -95.34099 | 101 ft | 20 kts | 287° |
| 2026-05-04 01:51 | 29.98376 | -95.34262 | 101 ft | 19 kts | 269° |
| 2026-05-04 01:51 | 29.98370 | -95.34414 | 101 ft | 17 kts | 253° |
| 2026-05-04 01:51 | 29.98327 | -95.34555 | 99 ft | 19 kts | 265° |
| 2026-05-04 01:51 | 29.98327 | -95.34733 | 97 ft | 22 kts | 273° |
| 2026-05-04 01:52 | 29.98425 | -95.34840 | 97 ft | 18 kts | 336° |
| 2026-05-04 01:52 | 29.98480 | -95.34894 | 97 ft | 0 kts | 313° |